Main page
METAR-TAF:

Airports :

Current weather observation

The report was made 10 minutes ago, at 00:00 UTC
Wind 6 kt from the North
Temperature 34°C
Humidity 71%
Pressure 996 hPa
Visibility: 5000 m
haze

METAR: OTBD 250000Z 36006KT 5000 HZ NSC 34/28 Q0996 NOSIG

Time: 00:10 (00:10 UTC)

Forecast

The report was made 1 hour and 10 minutes ago, at 23:00 UTC
Forecast valid from 25 at 00 UTC to 26 at 06 UTC
Wind 7 kt from the East/Northeast
Visibility: 7000 m
Temporary
from 25 at 00 UTC to 25 at 04 UTC
Visibility: 4000 m
haze
Probability 30% :
Temporary
from 25 at 16 UTC to 26 at 04 UTC
Visibility: 4000 m
haze

TAF: OTBD 242300Z 2500/2606 06007KT 7000 NSC TEMPO 2500/2504 4000 HZ PROB30 TEMPO 2516/2604 4000 HZ

METAR-TAF

Weather observations and forecasts of more than 4000 airports (METAR and TAF reports).

The available stations are represented by yellow and red dots on the map.

Hover mouse over dot to see the name of the station.

Then click to see weather observations and forecasts.

To change the map : click on the green buttons with a black cross to zoom in, on the green button with a dash to zoom out, or on the green arrows for adjacent maps.


METAR-TAF: